Spennymoor, United Kingdom
Current Conditions -  °F | °C
As of 1:20 AM on Friday 26 Dec 2014 (Local Time) from EGNT Reporting Station
Light Fog Light Fog  
Wind Chill: 28°   Ceiling: Unl
Heat Index: 28°   Visibility: 1.2mi
Dew Point: 28°   Wind: 3mph
Humidity: 100%   Direction: 250°WSW
Pressure: 30.39"   Gusts: NA
Location:  54.7°N, 1.6°W
Report Text: EGNT 260120Z 25003KT 2000 PRFG NSC M02/M02 Q1029
Loading
Personal Weather Stations






























Interactive Weather Map New forecast layout! Learn more

10-Day Weather Forecast

Advertisements
Track Severe Weather on mobile